sensor_id;sensor_type;location;lat;lon;timestamp;P1;durP1;ratioP1;P2;durP2;ratioP2
55497;SDS011;41357;52.806;18.268;2022-10-23T00:02:12;37.63;;;13.55;;
55497;SDS011;41357;52.806;18.268;2022-10-23T00:04:39;44.65;;;14.85;;
55497;SDS011;41357;52.806;18.268;2022-10-23T00:07:05;37.85;;;13.75;;
55497;SDS011;41357;52.806;18.268;2022-10-23T00:09:31;41.83;;;14.30;;
55497;SDS011;41357;52.806;18.268;2022-10-23T00:11:57;31.33;;;13.05;;
55497;SDS011;41357;52.806;18.268;2022-10-23T00:14:23;40.35;;;14.90;;
55497;SDS011;41357;52.806;18.268;2022-10-23T00:16:50;40.63;;;14.50;;
55497;SDS011;41357;52.806;18.268;2022-10-23T00:19:16;42.45;;;15.50;;
55497;SDS011;41357;52.806;18.268;2022-10-23T00:21:42;39.83;;;14.40;;
55497;SDS011;41357;52.806;18.268;2022-10-23T00:24:08;42.58;;;15.50;;
55497;SDS011;41357;52.806;18.268;2022-10-23T00:26:34;42.05;;;14.57;;
55497;SDS011;41357;52.806;18.268;2022-10-23T00:29:02;38.63;;;15.57;;
55497;SDS011;41357;52.806;18.268;2022-10-23T00:31:28;38.58;;;15.98;;
55497;SDS011;41357;52.806;18.268;2022-10-23T00:33:55;39.92;;;15.23;;
55497;SDS011;41357;52.806;18.268;2022-10-23T00:36:21;34.85;;;14.50;;
55497;SDS011;41357;52.806;18.268;2022-10-23T00:38:47;37.72;;;14.93;;
55497;SDS011;41357;52.806;18.268;2022-10-23T00:41:15;40.30;;;14.65;;
55497;SDS011;41357;52.806;18.268;2022-10-23T00:46:27;34.15;;;14.70;;
55497;SDS011;41357;52.806;18.268;2022-10-23T00:48:53;40.08;;;14.52;;
55497;SDS011;41357;52.806;18.268;2022-10-23T00:51:19;42.35;;;15.15;;
55497;SDS011;41357;52.806;18.268;2022-10-23T00:53:46;39.67;;;15.48;;
55497;SDS011;41357;52.806;18.268;2022-10-23T00:56:13;29.98;;;12.85;;
55497;SDS011;41357;52.806;18.268;2022-10-23T00:58:39;40.88;;;15.02;;
55497;SDS011;41357;52.806;18.268;2022-10-23T01:01:15;33.20;;;14.38;;
55497;SDS011;41357;52.806;18.268;2022-10-23T01:03:42;35.42;;;13.70;;
55497;SDS011;41357;52.806;18.268;2022-10-23T01:06:11;39.60;;;13.85;;
55497;SDS011;41357;52.806;18.268;2022-10-23T01:08:53;32.38;;;14.38;;
55497;SDS011;41357;52.806;18.268;2022-10-23T01:11:25;32.25;;;15.25;;
55497;SDS011;41357;52.806;18.268;2022-10-23T01:14:02;44.22;;;15.48;;
55497;SDS011;41357;52.806;18.268;2022-10-23T01:21:57;38.67;;;16.15;;
55497;SDS011;41357;52.806;18.268;2022-10-23T01:29:24;43.10;;;15.77;;
55497;SDS011;41357;52.806;18.268;2022-10-23T01:31:55;42.92;;;15.30;;
55497;SDS011;41357;52.806;18.268;2022-10-23T01:34:30;35.42;;;14.15;;
55497;SDS011;41357;52.806;18.268;2022-10-23T01:36:57;37.67;;;14.88;;
55497;SDS011;41357;52.806;18.268;2022-10-23T01:39:25;37.15;;;15.40;;
55497;SDS011;41357;52.806;18.268;2022-10-23T01:41:54;32.83;;;14.18;;
55497;SDS011;41357;52.806;18.268;2022-10-23T01:44:25;44.22;;;16.35;;
55497;SDS011;41357;52.806;18.268;2022-10-23T01:46:52;49.70;;;16.77;;
55497;SDS011;41357;52.806;18.268;2022-10-23T01:49:19;45.00;;;16.48;;
55497;SDS011;41357;52.806;18.268;2022-10-23T01:51:47;46.65;;;15.70;;
55497;SDS011;41357;52.806;18.268;2022-10-23T01:54:15;39.28;;;15.98;;
55497;SDS011;41357;52.806;18.268;2022-10-23T01:56:43;45.05;;;17.50;;
55497;SDS011;41357;52.806;18.268;2022-10-23T01:59:14;46.10;;;16.23;;
55497;SDS011;41357;52.806;18.268;2022-10-23T02:01:42;42.40;;;17.65;;
55497;SDS011;41357;52.806;18.268;2022-10-23T02:04:11;38.78;;;15.80;;
55497;SDS011;41357;52.806;18.268;2022-10-23T02:06:38;62.40;;;18.17;;
55497;SDS011;41357;52.806;18.268;2022-10-23T02:09:04;49.03;;;15.40;;
55497;SDS011;41357;52.806;18.268;2022-10-23T02:11:31;47.85;;;15.68;;
55497;SDS011;41357;52.806;18.268;2022-10-23T02:16:51;54.72;;;16.95;;
55497;SDS011;41357;52.806;18.268;2022-10-23T02:24:30;37.00;;;15.40;;
55497;SDS011;41357;52.806;18.268;2022-10-23T02:27:00;49.35;;;16.73;;
55497;SDS011;41357;52.806;18.268;2022-10-23T02:29:27;66.50;;;17.83;;
55497;SDS011;41357;52.806;18.268;2022-10-23T02:31:55;58.88;;;19.52;;
55497;SDS011;41357;52.806;18.268;2022-10-23T02:34:21;43.25;;;15.85;;
55497;SDS011;41357;52.806;18.268;2022-10-23T02:36:47;67.25;;;17.00;;
55497;SDS011;41357;52.806;18.268;2022-10-23T02:39:14;54.72;;;17.52;;
55497;SDS011;41357;52.806;18.268;2022-10-23T02:41:46;49.22;;;17.30;;
55497;SDS011;41357;52.806;18.268;2022-10-23T02:44:17;51.42;;;17.58;;
55497;SDS011;41357;52.806;18.268;2022-10-23T03:00:28;39.72;;;11.73;;
55497;SDS011;41357;52.806;18.268;2022-10-23T03:02:57;56.47;;;16.52;;
55497;SDS011;41357;52.806;18.268;2022-10-23T03:05:25;43.70;;;15.45;;
55497;SDS011;41357;52.806;18.268;2022-10-23T03:07:52;42.22;;;16.15;;
55497;SDS011;41357;52.806;18.268;2022-10-23T03:10:19;44.70;;;15.65;;
55497;SDS011;41357;52.806;18.268;2022-10-23T03:12:45;38.80;;;14.80;;
55497;SDS011;41357;52.806;18.268;2022-10-23T03:15:13;38.47;;;14.88;;
55497;SDS011;41357;52.806;18.268;2022-10-23T03:17:39;43.85;;;14.23;;
55497;SDS011;41357;52.806;18.268;2022-10-23T03:20:06;34.97;;;11.88;;
55497;SDS011;41357;52.806;18.268;2022-10-23T03:22:32;30.73;;;13.25;;
55497;SDS011;41357;52.806;18.268;2022-10-23T03:24:58;39.20;;;12.80;;
55497;SDS011;41357;52.806;18.268;2022-10-23T03:27:24;33.70;;;13.27;;
55497;SDS011;41357;52.806;18.268;2022-10-23T03:29:50;25.48;;;11.70;;
55497;SDS011;41357;52.806;18.268;2022-10-23T03:32:16;29.10;;;10.68;;
55497;SDS011;41357;52.806;18.268;2022-10-23T03:34:42;28.67;;;10.60;;
55497;SDS011;41357;52.806;18.268;2022-10-23T03:37:08;25.83;;;11.02;;
55497;SDS011;41357;52.806;18.268;2022-10-23T03:39:35;28.38;;;10.18;;
55497;SDS011;41357;52.806;18.268;2022-10-23T03:42:01;22.45;;;9.90;;
55497;SDS011;41357;52.806;18.268;2022-10-23T03:44:27;24.98;;;10.65;;
55497;SDS011;41357;52.806;18.268;2022-10-23T03:46:55;22.08;;;9.60;;
55497;SDS011;41357;52.806;18.268;2022-10-23T03:49:21;26.90;;;11.27;;
55497;SDS011;41357;52.806;18.268;2022-10-23T03:51:47;23.55;;;10.43;;
55497;SDS011;41357;52.806;18.268;2022-10-23T03:54:23;25.55;;;10.77;;
55497;SDS011;41357;52.806;18.268;2022-10-23T03:56:50;21.45;;;8.98;;
55497;SDS011;41357;52.806;18.268;2022-10-23T03:59:16;32.30;;;9.80;;
55497;SDS011;41357;52.806;18.268;2022-10-23T04:01:42;23.65;;;10.20;;
55497;SDS011;41357;52.806;18.268;2022-10-23T04:04:09;28.67;;;11.85;;
55497;SDS011;41357;52.806;18.268;2022-10-23T04:06:35;25.05;;;10.73;;
55497;SDS011;41357;52.806;18.268;2022-10-23T04:09:01;27.75;;;11.48;;
55497;SDS011;41357;52.806;18.268;2022-10-23T04:11:27;31.50;;;11.85;;
55497;SDS011;41357;52.806;18.268;2022-10-23T04:13:54;27.80;;;11.48;;
55497;SDS011;41357;52.806;18.268;2022-10-23T04:16:20;30.25;;;11.93;;
55497;SDS011;41357;52.806;18.268;2022-10-23T04:18:46;32.03;;;11.75;;
55497;SDS011;41357;52.806;18.268;2022-10-23T04:21:12;28.90;;;11.55;;
55497;SDS011;41357;52.806;18.268;2022-10-23T04:23:38;28.92;;;12.23;;
55497;SDS011;41357;52.806;18.268;2022-10-23T04:26:04;28.65;;;10.95;;
55497;SDS011;41357;52.806;18.268;2022-10-23T04:28:30;36.53;;;12.95;;
55497;SDS011;41357;52.806;18.268;2022-10-23T04:30:57;34.58;;;12.50;;
55497;SDS011;41357;52.806;18.268;2022-10-23T04:33:23;32.90;;;11.88;;
55497;SDS011;41357;52.806;18.268;2022-10-23T04:35:49;27.70;;;10.63;;
55497;SDS011;41357;52.806;18.268;2022-10-23T04:38:15;27.23;;;12.02;;
55497;SDS011;41357;52.806;18.268;2022-10-23T04:40:41;45.90;;;12.75;;
55497;SDS011;41357;52.806;18.268;2022-10-23T04:43:08;31.05;;;12.27;;
55497;SDS011;41357;52.806;18.268;2022-10-23T04:45:34;34.17;;;12.18;;
55497;SDS011;41357;52.806;18.268;2022-10-23T04:48:00;28.85;;;13.20;;
55497;SDS011;41357;52.806;18.268;2022-10-23T04:50:26;34.63;;;13.52;;
55497;SDS011;41357;52.806;18.268;2022-10-23T04:52:53;34.90;;;12.30;;
55497;SDS011;41357;52.806;18.268;2022-10-23T04:55:19;37.75;;;12.75;;
55497;SDS011;41357;52.806;18.268;2022-10-23T04:57:45;28.55;;;11.48;;
55497;SDS011;41357;52.806;18.268;2022-10-23T05:00:12;28.70;;;12.15;;
55497;SDS011;41357;52.806;18.268;2022-10-23T05:02:38;39.40;;;13.20;;
55497;SDS011;41357;52.806;18.268;2022-10-23T05:05:05;38.65;;;12.88;;
55497;SDS011;41357;52.806;18.268;2022-10-23T05:07:32;34.67;;;13.43;;
55497;SDS011;41357;52.806;18.268;2022-10-23T05:09:58;51.38;;;13.57;;
55497;SDS011;41357;52.806;18.268;2022-10-23T05:12:24;49.35;;;14.15;;
55497;SDS011;41357;52.806;18.268;2022-10-23T05:14:51;37.90;;;13.50;;
55497;SDS011;41357;52.806;18.268;2022-10-23T05:17:33;44.15;;;14.68;;
55497;SDS011;41357;52.806;18.268;2022-10-23T05:20:00;37.95;;;13.50;;
55497;SDS011;41357;52.806;18.268;2022-10-23T05:22:29;59.13;;;14.75;;
55497;SDS011;41357;52.806;18.268;2022-10-23T05:24:55;50.55;;;15.27;;
55497;SDS011;41357;52.806;18.268;2022-10-23T05:27:21;43.05;;;14.70;;
55497;SDS011;41357;52.806;18.268;2022-10-23T05:29:47;52.78;;;13.32;;
55497;SDS011;41357;52.806;18.268;2022-10-23T05:32:13;48.72;;;13.23;;
55497;SDS011;41357;52.806;18.268;2022-10-23T05:34:41;58.47;;;16.23;;
55497;SDS011;41357;52.806;18.268;2022-10-23T05:37:08;75.63;;;15.48;;
55497;SDS011;41357;52.806;18.268;2022-10-23T05:39:35;53.30;;;15.43;;
55497;SDS011;41357;52.806;18.268;2022-10-23T05:42:01;47.10;;;14.57;;
55497;SDS011;41357;52.806;18.268;2022-10-23T05:44:27;45.88;;;14.50;;
55497;SDS011;41357;52.806;18.268;2022-10-23T05:46:53;46.70;;;14.80;;
55497;SDS011;41357;52.806;18.268;2022-10-23T05:49:19;54.20;;;17.10;;
55497;SDS011;41357;52.806;18.268;2022-10-23T05:51:45;63.25;;;16.45;;
55497;SDS011;41357;52.806;18.268;2022-10-23T05:54:11;41.33;;;15.68;;
55497;SDS011;41357;52.806;18.268;2022-10-23T05:56:38;74.30;;;18.35;;
55497;SDS011;41357;52.806;18.268;2022-10-23T05:59:07;63.70;;;16.77;;
55497;SDS011;41357;52.806;18.268;2022-10-23T06:01:34;55.95;;;15.75;;
55497;SDS011;41357;52.806;18.268;2022-10-23T06:04:00;63.40;;;16.98;;
55497;SDS011;41357;52.806;18.268;2022-10-23T06:06:26;44.83;;;16.48;;
55497;SDS011;41357;52.806;18.268;2022-10-23T06:08:53;62.33;;;20.08;;
55497;SDS011;41357;52.806;18.268;2022-10-23T06:11:19;72.72;;;19.85;;
55497;SDS011;41357;52.806;18.268;2022-10-23T06:13:45;66.60;;;20.33;;
55497;SDS011;41357;52.806;18.268;2022-10-23T06:16:18;63.40;;;19.88;;
55497;SDS011;41357;52.806;18.268;2022-10-23T06:18:45;62.50;;;18.40;;
55497;SDS011;41357;52.806;18.268;2022-10-23T06:21:11;46.88;;;16.58;;
55497;SDS011;41357;52.806;18.268;2022-10-23T06:23:38;51.25;;;16.77;;
55497;SDS011;41357;52.806;18.268;2022-10-23T06:26:05;49.38;;;16.38;;
55497;SDS011;41357;52.806;18.268;2022-10-23T06:28:31;63.00;;;19.38;;
55497;SDS011;41357;52.806;18.268;2022-10-23T06:30:57;51.00;;;16.27;;
55497;SDS011;41357;52.806;18.268;2022-10-23T06:33:24;49.10;;;16.00;;
55497;SDS011;41357;52.806;18.268;2022-10-23T06:35:50;41.28;;;14.35;;
55497;SDS011;41357;52.806;18.268;2022-10-23T06:38:16;47.55;;;15.95;;
55497;SDS011;41357;52.806;18.268;2022-10-23T06:40:42;39.28;;;16.08;;
55497;SDS011;41357;52.806;18.268;2022-10-23T06:43:11;47.22;;;17.23;;
55497;SDS011;41357;52.806;18.268;2022-10-23T06:45:37;53.05;;;16.00;;
55497;SDS011;41357;52.806;18.268;2022-10-23T06:48:03;45.78;;;16.02;;
55497;SDS011;41357;52.806;18.268;2022-10-23T06:50:30;54.83;;;16.40;;
55497;SDS011;41357;52.806;18.268;2022-10-23T06:52:56;46.30;;;16.70;;
55497;SDS011;41357;52.806;18.268;2022-10-23T06:55:22;60.28;;;19.88;;
55497;SDS011;41357;52.806;18.268;2022-10-23T06:57:48;50.92;;;18.13;;
55497;SDS011;41357;52.806;18.268;2022-10-23T07:00:14;65.97;;;17.83;;
55497;SDS011;41357;52.806;18.268;2022-10-23T07:02:40;49.60;;;17.77;;
55497;SDS011;41357;52.806;18.268;2022-10-23T07:05:06;59.50;;;19.05;;
55497;SDS011;41357;52.806;18.268;2022-10-23T07:07:33;50.70;;;18.88;;
55497;SDS011;41357;52.806;18.268;2022-10-23T07:09:59;50.28;;;17.98;;
55497;SDS011;41357;52.806;18.268;2022-10-23T07:12:26;58.67;;;21.15;;
55497;SDS011;41357;52.806;18.268;2022-10-23T07:14:52;68.15;;;21.83;;
55497;SDS011;41357;52.806;18.268;2022-10-23T07:17:18;49.17;;;16.77;;
55497;SDS011;41357;52.806;18.268;2022-10-23T07:19:45;51.22;;;20.05;;
55497;SDS011;41357;52.806;18.268;2022-10-23T07:22:11;48.03;;;18.08;;
55497;SDS011;41357;52.806;18.268;2022-10-23T07:24:37;55.92;;;19.30;;
55497;SDS011;41357;52.806;18.268;2022-10-23T07:27:04;40.13;;;16.98;;
55497;SDS011;41357;52.806;18.268;2022-10-23T07:29:30;42.38;;;16.85;;
55497;SDS011;41357;52.806;18.268;2022-10-23T07:31:57;51.13;;;19.25;;
55497;SDS011;41357;52.806;18.268;2022-10-23T07:34:25;43.95;;;17.70;;
55497;SDS011;41357;52.806;18.268;2022-10-23T07:36:51;37.00;;;15.52;;
55497;SDS011;41357;52.806;18.268;2022-10-23T07:39:19;43.33;;;17.35;;
55497;SDS011;41357;52.806;18.268;2022-10-23T07:41:46;42.20;;;17.67;;
55497;SDS011;41357;52.806;18.268;2022-10-23T07:44:12;39.97;;;18.02;;
55497;SDS011;41357;52.806;18.268;2022-10-23T07:46:39;39.55;;;17.52;;
55497;SDS011;41357;52.806;18.268;2022-10-23T07:49:05;33.10;;;14.82;;
55497;SDS011;41357;52.806;18.268;2022-10-23T07:51:31;32.05;;;15.38;;
55497;SDS011;41357;52.806;18.268;2022-10-23T07:53:57;33.67;;;15.27;;
55497;SDS011;41357;52.806;18.268;2022-10-23T07:56:25;31.40;;;14.13;;
55497;SDS011;41357;52.806;18.268;2022-10-23T07:58:53;32.57;;;14.50;;
55497;SDS011;41357;52.806;18.268;2022-10-23T08:01:33;34.55;;;14.98;;
55497;SDS011;41357;52.806;18.268;2022-10-23T08:03:59;32.00;;;14.70;;
55497;SDS011;41357;52.806;18.268;2022-10-23T08:06:25;33.22;;;14.13;;
55497;SDS011;41357;52.806;18.268;2022-10-23T08:08:51;39.67;;;16.55;;
55497;SDS011;41357;52.806;18.268;2022-10-23T08:11:19;36.95;;;18.55;;
55497;SDS011;41357;52.806;18.268;2022-10-23T08:13:53;31.15;;;14.85;;
55497;SDS011;41357;52.806;18.268;2022-10-23T08:16:20;34.75;;;16.00;;
55497;SDS011;41357;52.806;18.268;2022-10-23T08:18:46;36.50;;;16.30;;
55497;SDS011;41357;52.806;18.268;2022-10-23T08:21:13;41.63;;;18.17;;
55497;SDS011;41357;52.806;18.268;2022-10-23T08:23:40;33.22;;;17.30;;
55497;SDS011;41357;52.806;18.268;2022-10-23T08:26:06;38.60;;;16.05;;
55497;SDS011;41357;52.806;18.268;2022-10-23T08:28:32;36.17;;;16.60;;
55497;SDS011;41357;52.806;18.268;2022-10-23T08:31:04;38.47;;;16.65;;
55497;SDS011;41357;52.806;18.268;2022-10-23T08:33:31;30.08;;;15.55;;
55497;SDS011;41357;52.806;18.268;2022-10-23T08:35:57;38.83;;;16.35;;
55497;SDS011;41357;52.806;18.268;2022-10-23T08:38:23;44.70;;;19.90;;
55497;SDS011;41357;52.806;18.268;2022-10-23T08:40:49;58.47;;;23.10;;
55497;SDS011;41357;52.806;18.268;2022-10-23T08:43:31;53.03;;;20.52;;
55497;SDS011;41357;52.806;18.268;2022-10-23T08:46:00;57.45;;;21.98;;
55497;SDS011;41357;52.806;18.268;2022-10-23T08:48:47;53.53;;;21.90;;
55497;SDS011;41357;52.806;18.268;2022-10-23T08:56:32;61.85;;;23.83;;
55497;SDS011;41357;52.806;18.268;2022-10-23T09:02:00;59.38;;;21.38;;
55497;SDS011;41357;52.806;18.268;2022-10-23T09:04:27;63.72;;;23.02;;
55497;SDS011;41357;52.806;18.268;2022-10-23T09:06:59;38.17;;;16.15;;
55497;SDS011;41357;52.806;18.268;2022-10-23T09:12:15;41.70;;;18.65;;
55497;SDS011;41357;52.806;18.268;2022-10-23T09:19:34;38.22;;;18.23;;
55497;SDS011;41357;52.806;18.268;2022-10-23T09:22:00;38.85;;;18.02;;
55497;SDS011;41357;52.806;18.268;2022-10-23T09:24:26;28.27;;;15.40;;
55497;SDS011;41357;52.806;18.268;2022-10-23T09:26:56;29.30;;;15.45;;
55497;SDS011;41357;52.806;18.268;2022-10-23T09:29:23;31.33;;;15.02;;
55497;SDS011;41357;52.806;18.268;2022-10-23T09:31:51;29.95;;;14.75;;
55497;SDS011;41357;52.806;18.268;2022-10-23T09:34:18;36.65;;;16.33;;
55497;SDS011;41357;52.806;18.268;2022-10-23T09:37:21;31.02;;;14.02;;
55497;SDS011;41357;52.806;18.268;2022-10-23T09:39:37;24.83;;;13.48;;
55497;SDS011;41357;52.806;18.268;2022-10-23T09:44:49;30.08;;;13.40;;
55497;SDS011;41357;52.806;18.268;2022-10-23T09:47:17;26.98;;;14.27;;
55497;SDS011;41357;52.806;18.268;2022-10-23T09:49:48;27.63;;;14.07;;
55497;SDS011;41357;52.806;18.268;2022-10-23T09:59:56;24.50;;;14.00;;
55497;SDS011;41357;52.806;18.268;2022-10-23T10:02:28;28.02;;;15.93;;
55497;SDS011;41357;52.806;18.268;2022-10-23T10:04:54;28.30;;;15.52;;
55497;SDS011;41357;52.806;18.268;2022-10-23T10:07:22;29.05;;;16.95;;
55497;SDS011;41357;52.806;18.268;2022-10-23T10:09:48;29.15;;;15.90;;
55497;SDS011;41357;52.806;18.268;2022-10-23T10:12:18;27.15;;;15.63;;
55497;SDS011;41357;52.806;18.268;2022-10-23T10:17:15;25.60;;;13.38;;
55497;SDS011;41357;52.806;18.268;2022-10-23T10:19:57;20.20;;;11.80;;
55497;SDS011;41357;52.806;18.268;2022-10-23T10:27:49;25.85;;;14.65;;
55497;SDS011;41357;52.806;18.268;2022-10-23T10:30:18;28.42;;;14.57;;
55497;SDS011;41357;52.806;18.268;2022-10-23T10:32:46;22.83;;;12.70;;
55497;SDS011;41357;52.806;18.268;2022-10-23T10:35:36;23.13;;;13.52;;
55497;SDS011;41357;52.806;18.268;2022-10-23T10:43:30;24.52;;;14.25;;
55497;SDS011;41357;52.806;18.268;2022-10-23T10:53:58;27.00;;;15.68;;
55497;SDS011;41357;52.806;18.268;2022-10-23T10:56:26;35.30;;;17.50;;
55497;SDS011;41357;52.806;18.268;2022-10-23T10:58:56;28.25;;;15.07;;
55497;SDS011;41357;52.806;18.268;2022-10-23T11:04:12;24.20;;;13.38;;
55497;SDS011;41357;52.806;18.268;2022-10-23T11:06:39;23.38;;;13.23;;
55497;SDS011;41357;52.806;18.268;2022-10-23T11:09:13;27.15;;;14.38;;
55497;SDS011;41357;52.806;18.268;2022-10-23T11:11:40;22.70;;;11.85;;
55497;SDS011;41357;52.806;18.268;2022-10-23T11:14:17;25.85;;;15.25;;
55497;SDS011;41357;52.806;18.268;2022-10-23T11:16:45;22.77;;;12.93;;
55497;SDS011;41357;52.806;18.268;2022-10-23T11:19:16;20.35;;;11.15;;
55497;SDS011;41357;52.806;18.268;2022-10-23T11:21:48;20.83;;;10.52;;
55497;SDS011;41357;52.806;18.268;2022-10-23T11:26:56;24.45;;;12.98;;
55497;SDS011;41357;52.806;18.268;2022-10-23T11:36:57;24.90;;;12.63;;
55497;SDS011;41357;52.806;18.268;2022-10-23T11:39:29;20.83;;;12.38;;
55497;SDS011;41357;52.806;18.268;2022-10-23T11:41:56;16.63;;;10.77;;
55497;SDS011;41357;52.806;18.268;2022-10-23T11:46:57;25.75;;;12.43;;
55497;SDS011;41357;52.806;18.268;2022-10-23T11:49:24;20.65;;;11.57;;
55497;SDS011;41357;52.806;18.268;2022-10-23T11:52:03;25.42;;;13.25;;
55497;SDS011;41357;52.806;18.268;2022-10-23T11:54:29;27.13;;;13.00;;
55497;SDS011;41357;52.806;18.268;2022-10-23T12:04:52;19.35;;;11.13;;
55497;SDS011;41357;52.806;18.268;2022-10-23T12:07:23;23.25;;;11.65;;
55497;SDS011;41357;52.806;18.268;2022-10-23T12:09:59;19.77;;;11.40;;
55497;SDS011;41357;52.806;18.268;2022-10-23T12:12:31;24.55;;;10.63;;
55497;SDS011;41357;52.806;18.268;2022-10-23T12:17:43;18.58;;;9.65;;
55497;SDS011;41357;52.806;18.268;2022-10-23T12:25:27;17.83;;;10.45;;
55497;SDS011;41357;52.806;18.268;2022-10-23T12:30:45;18.90;;;12.30;;
55497;SDS011;41357;52.806;18.268;2022-10-23T12:33:20;25.20;;;13.38;;
55497;SDS011;41357;52.806;18.268;2022-10-23T12:38:23;21.45;;;10.50;;
55497;SDS011;41357;52.806;18.268;2022-10-23T12:40:59;18.30;;;10.02;;
55497;SDS011;41357;52.806;18.268;2022-10-23T12:43:32;23.65;;;11.98;;
55497;SDS011;41357;52.806;18.268;2022-10-23T12:48:51;18.35;;;9.88;;
55497;SDS011;41357;52.806;18.268;2022-10-23T12:51:27;18.13;;;10.55;;
55497;SDS011;41357;52.806;18.268;2022-10-23T12:53:54;18.88;;;10.85;;
55497;SDS011;41357;52.806;18.268;2022-10-23T12:56:20;17.13;;;9.88;;
55497;SDS011;41357;52.806;18.268;2022-10-23T12:58:50;20.13;;;10.07;;
55497;SDS011;41357;52.806;18.268;2022-10-23T13:04:44;15.77;;;10.43;;
55497;SDS011;41357;52.806;18.268;2022-10-23T13:06:51;18.92;;;9.88;;
55497;SDS011;41357;52.806;18.268;2022-10-23T13:09:27;20.67;;;10.45;;
55497;SDS011;41357;52.806;18.268;2022-10-23T13:11:53;18.02;;;10.27;;
55497;SDS011;41357;52.806;18.268;2022-10-23T13:17:10;19.38;;;11.38;;
55497;SDS011;41357;52.806;18.268;2022-10-23T13:19:36;20.23;;;10.52;;
55497;SDS011;41357;52.806;18.268;2022-10-23T13:22:03;18.73;;;12.00;;
55497;SDS011;41357;52.806;18.268;2022-10-23T13:24:30;17.23;;;9.95;;
55497;SDS011;41357;52.806;18.268;2022-10-23T13:26:57;17.92;;;10.13;;
55497;SDS011;41357;52.806;18.268;2022-10-23T13:29:27;17.67;;;9.25;;
55497;SDS011;41357;52.806;18.268;2022-10-23T13:31:54;14.75;;;8.70;;
55497;SDS011;41357;52.806;18.268;2022-10-23T13:34:22;15.02;;;9.23;;
55497;SDS011;41357;52.806;18.268;2022-10-23T13:36:49;15.10;;;9.55;;
55497;SDS011;41357;52.806;18.268;2022-10-23T13:39:16;16.92;;;9.05;;
55497;SDS011;41357;52.806;18.268;2022-10-23T13:41:47;19.70;;;8.20;;
55497;SDS011;41357;52.806;18.268;2022-10-23T13:44:14;14.38;;;8.02;;
55497;SDS011;41357;52.806;18.268;2022-10-23T13:46:41;21.52;;;9.43;;
55497;SDS011;41357;52.806;18.268;2022-10-23T13:49:07;14.43;;;7.90;;
55497;SDS011;41357;52.806;18.268;2022-10-23T13:51:41;17.80;;;8.93;;
55497;SDS011;41357;52.806;18.268;2022-10-23T13:54:12;17.55;;;8.73;;
55497;SDS011;41357;52.806;18.268;2022-10-23T13:56:39;16.20;;;8.10;;
55497;SDS011;41357;52.806;18.268;2022-10-23T13:59:05;21.25;;;9.10;;
55497;SDS011;41357;52.806;18.268;2022-10-23T14:01:32;15.98;;;8.43;;
55497;SDS011;41357;52.806;18.268;2022-10-23T14:04:00;18.38;;;8.68;;
55497;SDS011;41357;52.806;18.268;2022-10-23T14:06:28;16.67;;;8.52;;
55497;SDS011;41357;52.806;18.268;2022-10-23T14:08:54;19.67;;;9.57;;
55497;SDS011;41357;52.806;18.268;2022-10-23T14:11:20;18.90;;;9.88;;
55497;SDS011;41357;52.806;18.268;2022-10-23T14:13:46;13.80;;;8.18;;
55497;SDS011;41357;52.806;18.268;2022-10-23T14:16:14;17.17;;;8.30;;
55497;SDS011;41357;52.806;18.268;2022-10-23T14:18:40;20.02;;;9.32;;
55497;SDS011;41357;52.806;18.268;2022-10-23T14:21:07;14.07;;;8.38;;
55497;SDS011;41357;52.806;18.268;2022-10-23T14:23:33;13.80;;;7.88;;
55497;SDS011;41357;52.806;18.268;2022-10-23T14:26:00;12.57;;;7.45;;
55497;SDS011;41357;52.806;18.268;2022-10-23T14:28:26;12.15;;;7.40;;
55497;SDS011;41357;52.806;18.268;2022-10-23T14:30:52;14.20;;;7.80;;
55497;SDS011;41357;52.806;18.268;2022-10-23T14:33:19;15.02;;;7.85;;
55497;SDS011;41357;52.806;18.268;2022-10-23T14:35:45;17.17;;;8.13;;
55497;SDS011;41357;52.806;18.268;2022-10-23T14:38:11;14.40;;;8.18;;
55497;SDS011;41357;52.806;18.268;2022-10-23T14:40:37;16.85;;;8.55;;
55497;SDS011;41357;52.806;18.268;2022-10-23T14:43:03;17.25;;;8.75;;
55497;SDS011;41357;52.806;18.268;2022-10-23T14:45:30;16.35;;;8.80;;
55497;SDS011;41357;52.806;18.268;2022-10-23T14:47:56;15.05;;;8.65;;
55497;SDS011;41357;52.806;18.268;2022-10-23T14:50:24;17.08;;;9.32;;
55497;SDS011;41357;52.806;18.268;2022-10-23T14:52:51;17.08;;;9.30;;
55497;SDS011;41357;52.806;18.268;2022-10-23T14:55:17;17.05;;;9.68;;
55497;SDS011;41357;52.806;18.268;2022-10-23T14:57:43;13.68;;;8.65;;
55497;SDS011;41357;52.806;18.268;2022-10-23T15:00:09;12.52;;;7.70;;
55497;SDS011;41357;52.806;18.268;2022-10-23T15:02:36;13.73;;;8.15;;
55497;SDS011;41357;52.806;18.268;2022-10-23T15:05:02;13.07;;;7.88;;
55497;SDS011;41357;52.806;18.268;2022-10-23T15:07:30;13.23;;;7.55;;
55497;SDS011;41357;52.806;18.268;2022-10-23T15:09:56;19.88;;;8.93;;
55497;SDS011;41357;52.806;18.268;2022-10-23T15:12:22;15.55;;;9.05;;
55497;SDS011;41357;52.806;18.268;2022-10-23T15:14:48;19.58;;;9.70;;
55497;SDS011;41357;52.806;18.268;2022-10-23T15:17:14;15.60;;;9.50;;
55497;SDS011;41357;52.806;18.268;2022-10-23T15:19:40;25.27;;;14.48;;
55497;SDS011;41357;52.806;18.268;2022-10-23T15:22:07;20.27;;;12.63;;
55497;SDS011;41357;52.806;18.268;2022-10-23T15:24:33;25.40;;;15.43;;
55497;SDS011;41357;52.806;18.268;2022-10-23T15:26:59;29.65;;;15.45;;
55497;SDS011;41357;52.806;18.268;2022-10-23T15:29:26;27.30;;;15.25;;
55497;SDS011;41357;52.806;18.268;2022-10-23T15:31:53;23.25;;;13.35;;
55497;SDS011;41357;52.806;18.268;2022-10-23T15:34:20;24.67;;;12.55;;
55497;SDS011;41357;52.806;18.268;2022-10-23T15:36:47;19.10;;;10.30;;
55497;SDS011;41357;52.806;18.268;2022-10-23T15:39:14;17.88;;;11.52;;
55497;SDS011;41357;52.806;18.268;2022-10-23T15:41:41;24.10;;;12.05;;
55497;SDS011;41357;52.806;18.268;2022-10-23T15:44:08;18.60;;;11.82;;
55497;SDS011;41357;52.806;18.268;2022-10-23T15:46:34;22.75;;;12.52;;
55497;SDS011;41357;52.806;18.268;2022-10-23T15:49:00;22.15;;;12.70;;
55497;SDS011;41357;52.806;18.268;2022-10-23T15:51:26;24.33;;;13.05;;
55497;SDS011;41357;52.806;18.268;2022-10-23T15:53:52;30.25;;;15.57;;
55497;SDS011;41357;52.806;18.268;2022-10-23T15:56:21;28.90;;;16.17;;
55497;SDS011;41357;52.806;18.268;2022-10-23T15:58:47;27.00;;;14.73;;
55497;SDS011;41357;52.806;18.268;2022-10-23T16:01:13;32.90;;;16.90;;
55497;SDS011;41357;52.806;18.268;2022-10-23T16:03:39;33.70;;;17.77;;
55497;SDS011;41357;52.806;18.268;2022-10-23T16:06:06;30.77;;;18.63;;
55497;SDS011;41357;52.806;18.268;2022-10-23T16:08:32;36.60;;;20.10;;
55497;SDS011;41357;52.806;18.268;2022-10-23T16:10:58;34.85;;;21.13;;
55497;SDS011;41357;52.806;18.268;2022-10-23T16:13:25;41.42;;;22.40;;
55497;SDS011;41357;52.806;18.268;2022-10-23T16:15:51;38.75;;;24.88;;
55497;SDS011;41357;52.806;18.268;2022-10-23T16:18:21;34.13;;;19.63;;
55497;SDS011;41357;52.806;18.268;2022-10-23T16:20:47;39.72;;;21.90;;
55497;SDS011;41357;52.806;18.268;2022-10-23T16:23:16;39.67;;;20.30;;